Arcadia, Nebraska
Current Conditions -  °F | °C
As of 2:53 AM on Wednesday 26 Nov 2014 (Local Time) from KODX Reporting Station
Overcast Overcast  
Wind Chill: 25°   Ceiling: 5500
Heat Index: 36°   Visibility: 10mi
Dew Point: 26°   Wind: 21mph
Humidity: 67%   Direction: 300°WNW
Pressure: 29.93"   Gusts: 29mph
Location:  41.42°N, 99.13°W
Report Text: KODX 260853Z AUTO 30018G25KT 10SM FEW037 OVC055 02/M03 A2993 RMK AO2 SLP149 T00221033 53015
Loading
Personal Weather Stations






























Interactive Weather Map New forecast layout! Learn more

10-Day Weather Forecast

Advertisements
Track Severe Weather on mobile